Terminal Aerodrome Forecast
Issued by NWS

Home | Current Version | Previous Version | Graphics & Text | Print | Product List | Glossary On
Versions: 1 2 3 4 5 6 7 8 9 10 11 12 13 14 15 16 17 18
066
FTUS41 KCLE 280539
TAFFDY
TAF
KFDY 280539Z 2806/2906 07012KT P6SM VCSH BKN050
     FM280700 07010KT P6SM -SHRA BKN035
     FM280900 07012KT 5SM -SHRA BKN018
     FM281400 06012KT 6SM BR VCSH OVC008
     FM290200 03006KT 3SM BR VCSH OVC005=

USA.gov is the U.S. government's official web portal to all federal, state and local government web resources and services.